This is the latest recevied weather packets stored in our database for station/object ka8upw-1. If no packets are shown the sender has not sent any weather packets the latest 10 day(s).
| Time | Temp. | Humidity | Pressure | Rain* | Wind** | Luminosity | Snow |
|---|---|---|---|---|---|---|---|
| 1777388404 | 15.56° C | 93% | 1010.2 hPa | 0.25 mm | - | - | - |
| 1777387503 | 15° C | 93% | 1010.3 hPa | 0.25 mm | - | - | - |
| 1777386964 | 14.44° C | 93% | 1010.2 hPa | 0.25 mm | - | - | - |
| 1777385343 | 14.44° C | 92% | 1009.9 hPa | 0 mm | - | - | - |
| 1777381743 | 13.89° C | 90% | 1009.5 hPa | 0 mm | - | - | - |
| 1777378145 | 13.33° C | 88% | 1009.2 hPa | 0 mm | - | - | - |
| 1777368963 | 14.44° C | 89% | 1006.7 hPa | 0 mm | - | - | - |
| 1777366577 | 15.56° C | 88% | 1005.2 hPa | 0 mm | - | - | - |
| 1777365903 | 15.56° C | 87% | 1004.4 hPa | 0 mm | - | - | - |
| 1777362843 | 15° C | 93% | 1005.4 hPa | 0 mm | - | - | - |
| 1777352403 | 18.33° C | 73% | 1007.1 hPa | 0 mm | - | - | - |
| 1777350424 | 19.44° C | 65% | 1006.6 hPa | 0 mm | - | - | - |
| 1777347903 | 18.89° C | 72% | 1005.5 hPa | 0 mm | - | - | - |
| 1777343763 | 17.22° C | 81% | 1007.6 hPa | 0 mm | - | - | - |
| 1777341604 | 17.78° C | 78% | 1009.5 hPa | 1.02 mm | - | - | - |
| 1777340163 | 16.67° C | 84% | 1009.5 hPa | 2.79 mm | - | - | - |
| 1777339088 | 16.11° C | 91% | 1009.2 hPa | 3.05 mm | - | - | - |
| 1777338544 | 16.11° C | 91% | 1010.2 hPa | 3.05 mm | - | - | - |
| 1777336563 | 17.22° C | 86% | 1013.9 hPa | 1.27 mm | - | - | - |
| 1777331884 | 21.11° C | 60% | 1013.3 hPa | 0 mm | - | - | - |
| 1777331343 | 21.11° C | 59% | 1013.3 hPa | 0 mm | - | - | - |
| 1777328284 | 22.22° C | 57% | 1012.7 hPa | 0 mm | - | - | - |
| 1777319643 | 23.33° C | 55% | 1012.8 hPa | 0 mm | - | - | - |
| 1777315101 | 22.78° C | 55% | 1014.1 hPa | 0 mm | - | - | - |
| 1777306683 | 19.44° C | 66% | 1015.7 hPa | 0 mm | - | - | - |
* Rain latest hour (hover to see other rain measurements)
** Current wind speed in m/s (hover to see current wind gust speed)